createdAt,value
2019-03-31T00:01:48.799Z,11.07
2019-03-31T00:06:51.056Z,11.00
2019-03-31T00:11:53.291Z,10.73
2019-03-31T00:16:55.540Z,11.20
2019-03-31T00:21:57.804Z,11.03
2019-03-31T00:26:59.970Z,10.87
2019-03-31T00:32:02.410Z,10.40
2019-03-31T00:37:07.542Z,10.73
2019-03-31T00:42:08.852Z,10.13
2019-03-31T00:47:11.107Z,10.77
2019-03-31T00:52:13.217Z,11.03
2019-03-31T00:57:15.603Z,11.27
2019-03-31T01:02:21.877Z,11.23
2019-03-31T01:07:25.352Z,11.23
2019-03-31T01:12:27.806Z,11.13
2019-03-31T01:17:30.208Z,10.47
2019-03-31T01:22:32.500Z,10.47
2019-03-31T01:27:35.201Z,11.97
2019-03-31T01:32:37.558Z,10.90
2019-03-31T01:37:39.685Z,10.53
2019-03-31T01:42:41.983Z,11.70
2019-03-31T01:47:44.248Z,11.07
2019-03-31T01:52:46.482Z,10.97
2019-03-31T01:57:48.619Z,10.80
2019-03-31T02:02:50.833Z,10.30
2019-03-31T02:07:53.212Z,10.20
2019-03-31T02:12:55.614Z,10.93
2019-03-31T02:17:57.885Z,10.00
2019-03-31T02:23:00.164Z,10.73
2019-03-31T02:28:02.388Z,10.53
2019-03-31T02:33:04.686Z,10.67
2019-03-31T02:38:06.955Z,10.67
2019-03-31T02:43:09.195Z,10.73
2019-03-31T02:48:14.258Z,10.43
2019-03-31T02:53:16.829Z,10.40
2019-03-31T02:58:19.518Z,10.03
2019-03-31T03:03:21.947Z,10.67
2019-03-31T03:08:25.805Z,10.13
2019-03-31T03:13:29.238Z,9.53
2019-03-31T03:18:31.489Z,10.53
2019-03-31T03:23:33.780Z,11.80
2019-03-31T03:28:36.045Z,12.10
2019-03-31T03:33:38.297Z,11.63
2019-03-31T03:38:40.696Z,10.97
2019-03-31T03:43:54.924Z,10.60
2019-03-31T03:48:47.290Z,10.57
2019-03-31T03:53:49.528Z,10.60
2019-03-31T03:58:51.754Z,9.90
2019-03-31T04:03:54.095Z,9.23
2019-03-31T04:08:56.343Z,9.60
2019-03-31T04:13:58.702Z,10.80
2019-03-31T04:19:00.849Z,10.57
2019-03-31T04:24:03.333Z,10.33
2019-03-31T04:29:05.518Z,10.37
2019-03-31T04:34:07.702Z,9.50
2019-03-31T04:39:09.949Z,9.60
2019-03-31T04:44:12.190Z,10.00
2019-03-31T04:49:14.439Z,10.17
2019-03-31T04:54:16.706Z,9.83
2019-03-31T04:59:18.909Z,10.13
2019-03-31T05:04:21.034Z,9.83
2019-03-31T05:09:23.146Z,9.17
2019-03-31T05:14:25.257Z,10.17
2019-03-31T05:19:27.357Z,9.43
2019-03-31T05:24:29.481Z,9.20
2019-03-31T05:29:31.595Z,9.83
2019-03-31T05:34:33.724Z,9.20
2019-03-31T05:39:35.918Z,9.13
2019-03-31T05:44:38.180Z,9.50
2019-03-31T05:49:40.268Z,9.33
2019-03-31T05:54:42.359Z,9.10
2019-03-31T05:59:44.446Z,9.43
2019-03-31T06:04:46.566Z,8.50
2019-03-31T06:09:48.690Z,9.20
2019-03-31T06:14:50.743Z,9.37
2019-03-31T06:19:52.970Z,10.73
2019-03-31T06:24:55.063Z,12.07
2019-03-31T06:29:57.147Z,12.13
2019-03-31T06:34:59.236Z,11.43
2019-03-31T06:40:01.379Z,12.40
2019-03-31T06:45:04.028Z,11.87
2019-03-31T06:50:06.484Z,13.10
2019-03-31T06:55:08.678Z,14.13
2019-03-31T07:00:13.386Z,13.93
2019-03-31T07:05:15.533Z,14.83
2019-03-31T07:10:17.808Z,15.80
2019-03-31T07:15:20.109Z,16.80
2019-03-31T07:20:22.323Z,17.97
2019-03-31T07:25:24.523Z,18.83
2019-03-31T07:30:26.946Z,21.47
2019-03-31T07:35:29.151Z,21.27
2019-03-31T07:40:31.446Z,22.13
2019-03-31T07:45:33.637Z,23.63
2019-03-31T07:50:35.744Z,24.70
2019-03-31T07:55:37.970Z,22.67
2019-03-31T08:00:40.187Z,23.53
2019-03-31T08:05:42.308Z,24.57
2019-03-31T08:10:44.605Z,22.43
2019-03-31T08:15:46.878Z,23.30
2019-03-31T08:20:49.065Z,23.17
2019-03-31T08:25:51.413Z,21.97
2019-03-31T08:30:53.586Z,21.87
2019-03-31T08:35:55.818Z,24.40
2019-03-31T08:40:58.030Z,22.33
2019-03-31T08:46:00.330Z,22.67
2019-03-31T08:51:02.478Z,22.50
2019-03-31T08:56:08.486Z,23.33
2019-03-31T09:01:14.192Z,22.73
2019-03-31T09:06:16.529Z,22.97
2019-03-31T09:11:18.819Z,22.57
2019-03-31T09:16:21.042Z,22.73
2019-03-31T09:21:23.426Z,21.53
2019-03-31T09:26:25.731Z,23.47
2019-03-31T09:31:28.059Z,23.70
2019-03-31T09:36:30.269Z,21.10
2019-03-31T09:41:32.538Z,21.50
2019-03-31T09:46:34.695Z,22.40
2019-03-31T09:51:37.034Z,22.70
2019-03-31T09:56:39.262Z,22.27
2019-03-31T10:01:41.569Z,22.67
2019-03-31T10:06:43.799Z,23.33
2019-03-31T10:11:46.008Z,22.77
2019-03-31T10:16:48.284Z,23.93
2019-03-31T10:21:50.536Z,23.73
2019-03-31T10:26:52.953Z,23.57
2019-03-31T10:31:55.167Z,23.40
2019-03-31T10:36:57.427Z,20.27
2019-03-31T10:41:59.594Z,20.87
2019-03-31T10:47:01.921Z,18.40
2019-03-31T10:52:04.211Z,20.13
2019-03-31T10:57:06.438Z,16.40
2019-03-31T11:02:08.688Z,18.70
2019-03-31T11:07:10.824Z,17.30
2019-03-31T11:12:12.981Z,16.93
2019-03-31T11:17:15.147Z,17.47
2019-03-31T11:22:27.468Z,15.53
2019-03-31T11:27:29.822Z,16.57
2019-03-31T11:32:32.077Z,15.80
2019-03-31T11:37:34.315Z,18.53
2019-03-31T11:42:36.469Z,19.57
2019-03-31T11:47:38.733Z,19.30
2019-03-31T11:52:41.031Z,18.80
2019-03-31T11:57:43.362Z,20.47
2019-03-31T12:02:45.456Z,20.20
2019-03-31T12:07:47.721Z,19.77
2019-03-31T12:12:49.963Z,19.60
2019-03-31T12:17:52.124Z,19.13
2019-03-31T12:22:54.544Z,19.40
2019-03-31T12:27:56.654Z,19.57
2019-03-31T12:32:58.954Z,19.23
2019-03-31T12:38:01.456Z,18.20
2019-03-31T12:43:03.961Z,19.60
2019-03-31T12:48:06.167Z,18.13
2019-03-31T12:53:08.328Z,17.57
2019-03-31T12:58:10.440Z,18.37
2019-03-31T13:03:15.898Z,16.83
2019-03-31T13:08:16.832Z,15.77
2019-03-31T13:13:19.148Z,15.95
2019-03-31T13:18:21.395Z,15.58
2019-03-31T13:23:23.520Z,15.35
2019-03-31T13:28:25.643Z,14.15
2019-03-31T13:33:27.879Z,13.93
2019-03-31T13:38:30.038Z,13.05
2019-03-31T13:43:32.153Z,12.60
2019-03-31T13:48:34.305Z,10.63
2019-03-31T13:53:36.448Z,10.67
2019-03-31T13:58:39.171Z,9.87
2019-03-31T14:03:41.373Z,9.07
2019-03-31T14:08:43.596Z,9.03
2019-03-31T14:13:45.827Z,8.43
2019-03-31T14:18:47.989Z,9.50
2019-03-31T14:23:50.152Z,7.40
2019-03-31T14:28:52.386Z,7.00
2019-03-31T14:33:54.805Z,6.60
2019-03-31T14:38:57.291Z,7.07
2019-03-31T14:43:59.481Z,6.37
2019-03-31T14:49:01.632Z,6.40
2019-03-31T14:54:03.914Z,6.17
2019-03-31T14:59:06.180Z,6.93
2019-03-31T15:04:08.326Z,6.03
2019-03-31T15:09:10.444Z,7.20
2019-03-31T15:14:12.622Z,6.93
2019-03-31T15:19:14.786Z,6.80
2019-03-31T15:24:17.047Z,7.07
2019-03-31T15:29:19.150Z,6.13
2019-03-31T15:34:21.371Z,5.90
2019-03-31T15:39:23.624Z,5.63
2019-03-31T15:44:25.796Z,5.67
2019-03-31T15:49:27.927Z,5.80
2019-03-31T15:54:30.186Z,5.70
2019-03-31T15:59:32.427Z,6.07
2019-03-31T16:04:34.526Z,4.93
2019-03-31T16:09:36.140Z,5.43
2019-03-31T16:14:37.863Z,5.70
2019-03-31T16:19:41.479Z,4.93
2019-03-31T16:24:46.316Z,4.70
2019-03-31T16:29:47.983Z,4.53
2019-03-31T16:34:49.725Z,4.30
2019-03-31T16:39:51.377Z,4.30
2019-03-31T16:44:58.471Z,4.57
2019-03-31T16:49:56.729Z,4.20
2019-03-31T16:54:58.339Z,4.07
2019-03-31T16:59:59.891Z,3.37
2019-03-31T17:05:01.497Z,3.30
2019-03-31T17:10:04.584Z,3.17
2019-03-31T17:15:06.603Z,3.43
2019-03-31T17:20:08.333Z,3.70
2019-03-31T17:25:14.529Z,3.07
2019-03-31T17:30:16.415Z,3.13
2019-03-31T17:35:18.097Z,3.43
2019-03-31T17:40:19.824Z,3.40
2019-03-31T17:45:21.491Z,3.57
2019-03-31T17:50:23.099Z,3.10
2019-03-31T17:55:24.751Z,3.60
2019-03-31T18:00:26.356Z,4.87
2019-03-31T18:05:27.942Z,8.13
2019-03-31T18:10:29.648Z,6.03
2019-03-31T18:15:31.211Z,5.70
2019-03-31T18:20:32.813Z,6.27
2019-03-31T18:25:34.360Z,5.47
2019-03-31T18:30:35.994Z,4.53
2019-03-31T18:35:37.540Z,5.03
2019-03-31T18:40:39.163Z,10.30
2019-03-31T18:45:40.770Z,13.93
2019-03-31T18:50:42.482Z,10.67
2019-03-31T18:55:59.489Z,8.33
2019-03-31T19:01:15.613Z,17.90
2019-03-31T19:06:41.400Z,18.47
2019-03-31T19:12:08.224Z,17.47
2019-03-31T19:17:32.105Z,12.00
2019-03-31T19:22:54.950Z,12.90
2019-03-31T19:28:08.277Z,11.23
2019-03-31T19:33:37.074Z,13.40
2019-03-31T19:39:01.409Z,7.30
2019-03-31T19:44:25.963Z,7.03
2019-03-31T19:49:53.201Z,6.07
2019-03-31T19:55:20.513Z,5.63
2019-03-31T20:00:40.533Z,5.17
2019-03-31T20:05:49.786Z,3.63
2019-03-31T20:11:14.247Z,3.90
2019-03-31T20:16:38.367Z,3.97
2019-03-31T20:21:45.294Z,2.57
2019-03-31T20:27:06.517Z,1.97
2019-03-31T20:32:51.506Z,1.77
2019-03-31T20:38:04.075Z,1.80
2019-03-31T20:43:28.071Z,2.20
2019-03-31T20:48:29.649Z,1.40
2019-03-31T20:53:31.219Z,1.30
2019-03-31T20:58:32.789Z,1.20
2019-03-31T21:03:34.366Z,1.50
2019-03-31T21:08:35.952Z,1.00
2019-03-31T21:13:37.510Z,0.90
2019-03-31T21:18:39.082Z,1.20
2019-03-31T21:23:40.664Z,1.10
2019-03-31T21:28:42.233Z,1.10
2019-03-31T21:33:43.791Z,1.10
2019-03-31T21:38:45.359Z,1.53
2019-03-31T21:43:46.953Z,0.73
2019-03-31T21:48:48.511Z,1.00
2019-03-31T21:53:50.074Z,1.13
2019-03-31T21:58:51.635Z,1.40
2019-03-31T22:03:53.344Z,1.00
2019-03-31T22:08:55.160Z,1.23
2019-03-31T22:13:57.368Z,1.07
2019-03-31T22:18:59.312Z,1.10
2019-03-31T22:24:01.240Z,0.90
2019-03-31T22:29:03.000Z,1.00
2019-03-31T22:34:04.806Z,0.90
2019-03-31T22:39:06.723Z,0.80
2019-03-31T22:44:08.492Z,0.97
2019-03-31T22:49:10.217Z,0.90
2019-03-31T22:54:11.957Z,0.90
2019-03-31T22:59:13.833Z,0.70
2019-03-31T23:04:15.586Z,0.93
2019-03-31T23:09:17.409Z,0.90
2019-03-31T23:14:19.215Z,1.00
2019-03-31T23:19:20.956Z,1.27
2019-03-31T23:24:22.795Z,0.97
2019-03-31T23:29:24.573Z,0.77
2019-03-31T23:34:26.323Z,0.90
2019-03-31T23:39:28.093Z,0.90
2019-03-31T23:44:29.841Z,1.00
2019-03-31T23:49:31.593Z,1.30
2019-03-31T23:54:33.309Z,1.00
2019-03-31T23:59:35.061Z,0.97
